createdAt,value
2022-09-23T00:00:36.099Z,2.92
2022-09-23T00:02:37.817Z,2.75
2022-09-23T00:04:39.446Z,4.18
2022-09-23T00:06:44.264Z,2.60
2022-09-23T00:08:46.398Z,2.90
2022-09-23T00:10:47.961Z,3.03
2022-09-23T00:12:49.480Z,3.05
2022-09-23T00:14:53.292Z,3.35
2022-09-23T00:16:54.861Z,4.63
2022-09-23T00:18:56.739Z,3.42
2022-09-23T00:21:02.135Z,3.28
2022-09-23T00:23:03.832Z,4.10
2022-09-23T00:25:07.541Z,3.42
2022-09-23T00:27:09.907Z,2.90
2022-09-23T00:29:11.887Z,3.15
2022-09-23T00:31:22.384Z,3.47
2022-09-23T00:33:24.066Z,3.28
2022-09-23T00:35:25.667Z,4.30
2022-09-23T00:37:34.239Z,3.33
2022-09-23T00:39:36.068Z,3.28
2022-09-23T00:41:37.790Z,2.33
2022-09-23T00:43:41.025Z,3.75
2022-09-23T00:45:47.709Z,2.63
2022-09-23T00:48:01.556Z,2.20
2022-09-23T00:50:12.859Z,3.08
2022-09-23T00:52:20.440Z,3.05
2022-09-23T00:54:24.780Z,2.42
2022-09-23T00:56:26.571Z,2.75
2022-09-23T00:58:31.773Z,3.22
2022-09-23T01:00:38.171Z,2.72
2022-09-23T01:02:39.914Z,3.33
2022-09-23T01:04:42.607Z,3.33
2022-09-23T01:06:44.552Z,3.13
2022-09-23T01:08:47.542Z,3.13
2022-09-23T01:11:07.425Z,3.53
2022-09-23T01:13:36.173Z,2.40
2022-09-23T01:15:48.515Z,6.22
2022-09-23T01:17:55.415Z,2.15
2022-09-23T01:20:29.042Z,2.45
2022-09-23T01:22:56.617Z,2.40
2022-09-23T01:25:17.106Z,2.72
2022-09-23T01:27:54.732Z,2.55
2022-09-23T01:30:18.301Z,3.17
2022-09-23T01:32:45.725Z,3.58
2022-09-23T01:34:57.106Z,2.55
2022-09-23T01:37:13.909Z,2.40
2022-09-23T01:39:15.527Z,2.65
2022-09-23T01:41:32.976Z,2.92
2022-09-23T01:43:42.410Z,2.42
2022-09-23T01:45:46.973Z,2.38
2022-09-23T01:47:53.378Z,2.22
2022-09-23T01:50:03.380Z,2.03
2022-09-23T01:52:14.731Z,2.95
2022-09-23T01:54:26.076Z,2.53
2022-09-23T01:57:01.864Z,4.30
2022-09-23T01:59:38.317Z,2.97
2022-09-23T02:01:50.870Z,2.67
2022-09-23T02:04:01.931Z,2.20
2022-09-23T02:06:09.314Z,3.72
2022-09-23T02:08:16.601Z,3.15
2022-09-23T02:10:28.837Z,2.90
2022-09-23T02:12:34.013Z,4.28
2022-09-23T02:14:47.128Z,2.50
2022-09-23T02:16:52.281Z,3.83
2022-09-23T02:19:09.782Z,2.35
2022-09-23T02:21:12.765Z,3.65
2022-09-23T02:23:23.083Z,3.30
2022-09-23T02:25:38.954Z,3.03
2022-09-23T02:28:06.049Z,2.30
2022-09-23T02:30:19.177Z,5.93
2022-09-23T02:32:49.756Z,2.17
2022-09-23T02:35:18.309Z,3.13
2022-09-23T02:37:49.561Z,3.67
2022-09-23T02:39:58.676Z,3.38
2022-09-23T02:42:12.844Z,2.30
2022-09-23T02:44:18.658Z,2.20
2022-09-23T02:46:21.292Z,2.65
2022-09-23T02:48:29.145Z,2.35
2022-09-23T02:50:32.350Z,2.80
2022-09-23T02:52:33.862Z,2.08
2022-09-23T02:54:37.381Z,2.35
2022-09-23T02:56:39.069Z,1.77
2022-09-23T02:58:43.825Z,2.70
2022-09-23T03:01:40.100Z,2.20
2022-09-23T03:04:16.351Z,2.50
2022-09-23T03:06:33.940Z,2.22
2022-09-23T03:08:45.615Z,2.25
2022-09-23T03:11:01.955Z,2.75
2022-09-23T03:13:13.368Z,2.55
2022-09-23T03:15:38.001Z,2.92
2022-09-23T03:17:46.754Z,2.35
2022-09-23T03:19:53.663Z,1.95
2022-09-23T03:22:19.616Z,1.90
2022-09-23T03:24:23.908Z,2.45
2022-09-23T03:26:31.390Z,2.05
2022-09-23T03:28:43.229Z,2.22
2022-09-23T03:30:45.377Z,1.70
2022-09-23T03:32:47.270Z,2.00
2022-09-23T03:34:52.903Z,2.15
2022-09-23T03:37:34.024Z,1.92
2022-09-23T03:39:48.680Z,2.13
2022-09-23T03:41:52.981Z,2.00
2022-09-23T03:44:01.009Z,1.60
2022-09-23T03:46:02.986Z,1.63
2022-09-23T03:48:07.853Z,1.67
2022-09-23T03:50:10.232Z,1.67
2022-09-23T03:52:11.796Z,1.90
2022-09-23T03:54:13.409Z,1.67
2022-09-23T03:56:15.153Z,1.58
2022-09-23T03:58:17.832Z,1.92
2022-09-23T04:00:19.493Z,1.98
2022-09-23T04:02:21.346Z,1.75
2022-09-23T04:04:23.229Z,2.33
2022-09-23T04:06:24.780Z,2.10
2022-09-23T04:08:27.362Z,2.13
2022-09-23T04:10:28.990Z,2.92
2022-09-23T04:12:30.562Z,2.60
2022-09-23T04:14:36.590Z,2.92
2022-09-23T04:16:38.157Z,3.30
2022-09-23T04:18:39.770Z,3.25
2022-09-23T04:20:42.080Z,3.40
2022-09-23T04:22:46.135Z,3.92
2022-09-23T04:24:47.905Z,4.55
2022-09-23T04:26:52.740Z,4.60
2022-09-23T04:28:55.218Z,4.28
2022-09-23T04:30:57.931Z,4.00
2022-09-23T04:32:59.636Z,4.53
2022-09-23T04:35:01.224Z,3.83
2022-09-23T04:37:08.707Z,4.50
2022-09-23T04:39:10.907Z,4.28
2022-09-23T04:41:12.984Z,3.60
2022-09-23T04:43:16.327Z,4.22
2022-09-23T04:45:20.984Z,3.10
2022-09-23T04:47:22.792Z,3.88
2022-09-23T04:49:24.550Z,3.25
2022-09-23T04:51:27.836Z,4.80
2022-09-23T04:53:29.397Z,3.38
2022-09-23T04:55:34.028Z,3.72
2022-09-23T04:57:35.655Z,5.05
2022-09-23T04:59:37.431Z,4.88
2022-09-23T05:01:39.249Z,4.90
2022-09-23T05:03:44.172Z,4.70
2022-09-23T05:05:46.229Z,5.53
2022-09-23T05:07:48.501Z,4.03
2022-09-23T05:09:50.186Z,3.45
2022-09-23T05:11:54.590Z,3.13
2022-09-23T05:13:56.131Z,3.85
2022-09-23T05:16:06.799Z,2.65
2022-09-23T05:18:09.336Z,3.40
2022-09-23T05:20:11.549Z,3.40
2022-09-23T05:22:13.211Z,2.60
2022-09-23T05:24:18.309Z,3.72
2022-09-23T05:26:20.078Z,2.70
2022-09-23T05:28:25.057Z,3.33
2022-09-23T05:30:26.517Z,3.42
2022-09-23T05:32:27.967Z,3.17
2022-09-23T05:34:29.537Z,2.45
2022-09-23T05:36:37.964Z,3.20
2022-09-23T05:38:40.619Z,6.32
2022-09-23T05:40:45.784Z,3.38
2022-09-23T05:42:49.675Z,2.63
2022-09-23T05:44:51.116Z,3.30
2022-09-23T05:46:52.866Z,2.88
2022-09-23T05:49:02.073Z,4.03
2022-09-23T05:51:09.160Z,3.67
2022-09-23T05:53:10.674Z,4.45
2022-09-23T05:55:12.191Z,4.07
2022-09-23T05:57:13.670Z,3.28
2022-09-23T05:59:15.449Z,4.85
2022-09-23T06:01:22.525Z,4.85
2022-09-23T06:03:25.567Z,3.20
2022-09-23T06:05:27.209Z,3.30
2022-09-23T06:07:28.720Z,3.65
2022-09-23T06:09:36.163Z,4.88
2022-09-23T06:11:38.240Z,4.82
2022-09-23T06:13:40.475Z,4.07
2022-09-23T06:15:45.219Z,6.95
2022-09-23T06:17:49.979Z,6.53
2022-09-23T06:19:51.573Z,5.88
2022-09-23T06:21:53.276Z,5.35
2022-09-23T06:23:57.272Z,5.85
2022-09-23T06:26:09.539Z,5.30
2022-09-23T06:28:12.128Z,4.32
2022-09-23T06:30:14.094Z,4.32
2022-09-23T06:32:18.393Z,6.53
2022-09-23T06:34:20.576Z,6.20
2022-09-23T06:36:38.454Z,4.25
2022-09-23T06:38:59.640Z,5.47
2022-09-23T06:41:03.296Z,3.88
2022-09-23T06:43:04.878Z,4.38
2022-09-23T06:45:07.934Z,4.03
2022-09-23T06:47:15.357Z,5.22
2022-09-23T06:49:17.011Z,5.85
2022-09-23T06:51:21.723Z,3.60
2022-09-23T06:53:23.683Z,3.55
2022-09-23T06:55:27.228Z,4.40
2022-09-23T06:57:33.170Z,4.43
2022-09-23T06:59:35.709Z,5.30
2022-09-23T07:01:38.009Z,3.83
2022-09-23T07:03:39.741Z,3.95
2022-09-23T07:05:41.373Z,2.90
2022-09-23T07:07:44.183Z,4.18
2022-09-23T07:09:46.156Z,3.67
2022-09-23T07:11:47.939Z,3.08
2022-09-23T07:13:49.670Z,3.38
2022-09-23T07:15:53.296Z,3.65
2022-09-23T07:17:55.586Z,3.47
2022-09-23T07:19:58.482Z,2.92
2022-09-23T07:22:00.327Z,4.70
2022-09-23T07:24:02.717Z,2.90
2022-09-23T07:26:04.837Z,3.63
2022-09-23T07:28:07.087Z,3.65
2022-09-23T07:30:18.908Z,3.47
2022-09-23T07:32:23.314Z,3.35
2022-09-23T07:34:25.116Z,4.53
2022-09-23T07:36:28.215Z,3.97
2022-09-23T07:38:30.322Z,4.03
2022-09-23T07:40:32.236Z,4.63
2022-09-23T07:42:36.667Z,3.70
2022-09-23T07:44:38.859Z,4.95
2022-09-23T07:46:41.028Z,5.47
2022-09-23T07:48:44.068Z,3.50
2022-09-23T07:50:45.599Z,3.97
2022-09-23T07:52:47.297Z,3.80
2022-09-23T07:54:49.025Z,3.67
2022-09-23T07:56:50.522Z,3.83
2022-09-23T07:59:05.077Z,3.60
2022-09-23T08:01:09.814Z,4.20
2022-09-23T08:03:11.928Z,3.45
2022-09-23T08:05:16.834Z,5.38
2022-09-23T08:07:19.127Z,4.40
2022-09-23T08:09:23.826Z,3.97
2022-09-23T08:11:26.648Z,4.78
2022-09-23T08:13:28.353Z,3.35
2022-09-23T08:15:31.251Z,4.85
2022-09-23T08:17:33.016Z,3.35
2022-09-23T08:19:34.694Z,4.85
2022-09-23T08:21:38.298Z,2.65
2022-09-23T08:23:39.843Z,3.72
2022-09-23T08:25:47.508Z,3.40
2022-09-23T08:27:49.378Z,2.97
2022-09-23T08:29:51.065Z,3.85
2022-09-23T08:31:53.333Z,2.20
2022-09-23T08:33:57.562Z,2.58
2022-09-23T08:36:01.913Z,3.22
2022-09-23T08:38:08.063Z,2.53
2022-09-23T08:40:10.237Z,2.85
2022-09-23T08:42:20.274Z,3.38
2022-09-23T08:44:27.388Z,3.17
2022-09-23T08:46:37.658Z,2.65
2022-09-23T08:48:48.275Z,2.72
2022-09-23T08:50:58.547Z,2.08
2022-09-23T08:53:04.909Z,2.28
2022-09-23T08:55:12.596Z,1.85
2022-09-23T08:57:41.551Z,2.50
2022-09-23T08:59:48.309Z,2.25
2022-09-23T09:02:14.828Z,2.03
2022-09-23T09:04:16.687Z,2.70
2022-09-23T09:06:27.754Z,2.20
2022-09-23T09:08:52.684Z,2.58
2022-09-23T09:10:55.668Z,2.08
2022-09-23T09:13:12.107Z,2.13
2022-09-23T09:15:21.229Z,2.55
2022-09-23T09:18:04.393Z,2.85
2022-09-23T09:20:23.371Z,2.72
2022-09-23T09:22:38.125Z,2.47
2022-09-23T09:24:40.281Z,1.70
2022-09-23T09:26:41.964Z,2.35
2022-09-23T09:29:30.863Z,4.25
2022-09-23T09:31:42.445Z,3.42
2022-09-23T09:34:20.277Z,2.47
2022-09-23T09:36:33.103Z,7.35
2022-09-23T09:38:38.023Z,25.35
2022-09-23T09:40:46.628Z,24.33
2022-09-23T09:42:49.842Z,15.60
2022-09-23T09:44:59.163Z,13.48
2022-09-23T09:47:28.672Z,9.93
2022-09-23T09:49:45.891Z,7.82
2022-09-23T09:51:47.581Z,6.63
2022-09-23T09:53:52.821Z,5.25
2022-09-23T09:56:12.893Z,3.83
2022-09-23T09:58:16.457Z,3.50
2022-09-23T10:00:25.775Z,2.58
2022-09-23T10:02:33.904Z,3.50
2022-09-23T10:04:35.886Z,2.67
2022-09-23T10:06:37.509Z,2.30
2022-09-23T10:08:39.247Z,3.15
2022-09-23T10:10:58.410Z,1.50
2022-09-23T10:13:15.200Z,1.70
2022-09-23T10:15:33.273Z,1.70
2022-09-23T10:17:38.486Z,1.70
2022-09-23T10:19:47.069Z,1.40
2022-09-23T10:21:54.508Z,1.60
2022-09-23T10:23:58.525Z,1.90
2022-09-23T10:26:05.103Z,2.72
2022-09-23T10:28:46.581Z,1.50
2022-09-23T10:31:08.765Z,1.52
2022-09-23T10:33:26.907Z,2.58
2022-09-23T10:35:30.339Z,1.40
2022-09-23T10:37:45.323Z,1.65
2022-09-23T10:40:05.723Z,1.70
2022-09-23T10:42:47.327Z,1.58
2022-09-23T10:45:29.988Z,2.22
2022-09-23T10:48:03.154Z,2.78
2022-09-23T10:50:23.089Z,2.58
2022-09-23T10:52:59.167Z,1.48
2022-09-23T10:55:27.725Z,1.40
2022-09-23T10:57:55.135Z,1.55
2022-09-23T11:00:10.423Z,1.30
2022-09-23T11:02:34.140Z,1.10
2022-09-23T11:04:55.254Z,1.17
2022-09-23T11:07:14.195Z,1.30
2022-09-23T11:09:23.012Z,1.20
2022-09-23T11:11:46.402Z,1.75
2022-09-23T11:14:25.750Z,1.05
2022-09-23T11:16:59.821Z,1.38
2022-09-23T11:19:21.900Z,1.20
2022-09-23T11:22:05.360Z,1.00
2022-09-23T11:24:35.576Z,1.13
2022-09-23T11:27:13.233Z,1.88
2022-09-23T11:29:33.783Z,1.30
2022-09-23T11:32:02.886Z,1.30
2022-09-23T11:34:25.092Z,1.20
2022-09-23T11:36:34.685Z,1.17
2022-09-23T11:38:42.832Z,1.20
2022-09-23T11:40:54.708Z,2.42
2022-09-23T11:43:01.389Z,1.17
2022-09-23T11:45:37.715Z,1.08
2022-09-23T11:47:53.042Z,1.30
2022-09-23T11:50:05.089Z,1.20
2022-09-23T11:52:28.707Z,1.15
2022-09-23T11:54:53.017Z,1.42
2022-09-23T11:56:59.642Z,1.70
2022-09-23T11:59:10.386Z,2.33
2022-09-23T12:01:35.660Z,0.98
2022-09-23T12:04:10.217Z,1.40
2022-09-23T12:06:26.206Z,1.05
2022-09-23T12:08:38.967Z,1.42
2022-09-23T12:10:45.947Z,1.00
2022-09-23T12:12:56.503Z,1.33
2022-09-23T12:15:04.070Z,2.05
2022-09-23T12:17:27.545Z,1.20
2022-09-23T12:19:51.690Z,1.10
2022-09-23T12:22:24.824Z,1.05
2022-09-23T12:24:43.331Z,1.52
2022-09-23T12:26:50.213Z,0.75
2022-09-23T12:28:58.703Z,4.05
2022-09-23T12:31:03.358Z,1.42
2022-09-23T12:33:22.692Z,0.98
2022-09-23T12:35:35.611Z,2.30
2022-09-23T12:37:40.071Z,1.05
2022-09-23T12:39:46.760Z,1.65
2022-09-23T12:41:54.373Z,1.92
2022-09-23T12:44:13.513Z,1.17
2022-09-23T12:46:21.899Z,0.82
2022-09-23T12:48:43.250Z,1.10
2022-09-23T12:50:52.352Z,0.88
2022-09-23T12:52:57.215Z,1.13
2022-09-23T12:55:27.444Z,1.40
2022-09-23T12:57:34.990Z,0.93
2022-09-23T12:59:52.485Z,1.15
2022-09-23T13:01:55.219Z,1.17
2022-09-23T13:04:17.497Z,1.20
2022-09-23T13:06:37.774Z,1.20
2022-09-23T13:08:41.698Z,0.80
2022-09-23T13:10:49.757Z,0.98
2022-09-23T13:12:55.810Z,1.08
2022-09-23T13:15:03.470Z,1.98
2022-09-23T13:17:05.355Z,1.30
2022-09-23T13:19:26.952Z,1.50
2022-09-23T13:21:45.099Z,1.35
2022-09-23T13:24:20.673Z,0.85
2022-09-23T13:26:25.518Z,0.90
2022-09-23T13:28:28.732Z,0.80
2022-09-23T13:30:30.435Z,1.00
2022-09-23T13:32:46.192Z,1.05
2022-09-23T13:35:18.918Z,0.93
2022-09-23T13:37:24.892Z,0.90
2022-09-23T13:39:28.781Z,1.15
2022-09-23T13:41:30.533Z,1.30
2022-09-23T13:43:41.366Z,2.15
2022-09-23T13:45:43.717Z,1.00
2022-09-23T13:47:48.441Z,0.88
2022-09-23T13:49:50.703Z,0.80
2022-09-23T13:51:54.162Z,0.98
2022-09-23T13:53:57.789Z,0.90
2022-09-23T13:56:14.325Z,1.13
2022-09-23T13:58:20.845Z,1.00
2022-09-23T14:00:23.851Z,0.85
2022-09-23T14:02:25.858Z,0.95
2022-09-23T14:04:27.559Z,1.35
2022-09-23T14:06:39.532Z,0.80
2022-09-23T14:08:50.741Z,1.05
2022-09-23T14:10:53.169Z,0.85
2022-09-23T14:12:56.418Z,0.80
2022-09-23T14:14:58.232Z,1.50
2022-09-23T14:17:00.556Z,0.93
2022-09-23T14:19:02.532Z,0.90
2022-09-23T14:21:04.488Z,0.98
2022-09-23T14:23:10.853Z,0.80
2022-09-23T14:25:14.683Z,1.30
2022-09-23T14:27:23.948Z,0.90
2022-09-23T14:29:28.716Z,1.52
2022-09-23T14:31:30.908Z,0.90
2022-09-23T14:33:34.340Z,0.80
2022-09-23T14:35:44.851Z,1.27
2022-09-23T14:38:07.933Z,0.90
2022-09-23T14:40:16.784Z,1.10
2022-09-23T14:42:19.802Z,1.10
2022-09-23T14:44:25.017Z,2.13
2022-09-23T14:46:29.649Z,1.50
2022-09-23T14:48:34.175Z,1.05
2022-09-23T14:50:36.978Z,0.90
2022-09-23T14:52:48.909Z,1.13
2022-09-23T14:54:50.884Z,1.25
2022-09-23T14:56:54.749Z,1.33
2022-09-23T14:59:00.186Z,1.10
2022-09-23T15:01:02.458Z,0.90
2022-09-23T15:03:15.353Z,1.35
2022-09-23T15:05:32.091Z,1.30
2022-09-23T15:07:37.917Z,1.98
2022-09-23T15:09:42.179Z,1.52
2022-09-23T15:11:44.391Z,1.17
2022-09-23T15:13:50.665Z,1.27
2022-09-23T15:15:54.555Z,1.10
2022-09-23T15:18:03.973Z,1.30
2022-09-23T15:20:14.304Z,1.23
2022-09-23T15:22:16.918Z,1.27
2022-09-23T15:24:42.823Z,1.25
2022-09-23T15:26:49.996Z,1.20
2022-09-23T15:28:54.187Z,0.98
2022-09-23T15:30:56.464Z,2.15
2022-09-23T15:32:58.238Z,1.40
2022-09-23T15:34:59.873Z,2.17
2022-09-23T15:37:01.558Z,1.30
2022-09-23T15:39:05.965Z,2.50
2022-09-23T15:41:07.583Z,2.25
2022-09-23T15:43:21.854Z,1.40
2022-09-23T15:45:36.736Z,2.63
2022-09-23T15:47:38.242Z,1.33
2022-09-23T15:49:39.979Z,2.03
2022-09-23T15:51:42.942Z,1.25
2022-09-23T15:53:44.728Z,1.20
2022-09-23T15:55:46.392Z,1.00
2022-09-23T15:57:48.681Z,1.20
2022-09-23T15:59:50.462Z,1.20
2022-09-23T16:01:53.470Z,1.42
2022-09-23T16:03:55.848Z,1.67
2022-09-23T16:06:01.081Z,1.90
2022-09-23T16:08:09.173Z,1.10
2022-09-23T16:10:10.883Z,2.80
2022-09-23T16:12:12.600Z,1.30
2022-09-23T16:14:16.529Z,1.65
2022-09-23T16:16:21.263Z,1.70
2022-09-23T16:18:23.024Z,1.60
2022-09-23T16:20:29.131Z,2.67
2022-09-23T16:22:31.027Z,1.52
2022-09-23T16:24:32.912Z,1.45
2022-09-23T16:26:35.963Z,1.40
2022-09-23T16:28:37.831Z,1.40
2022-09-23T16:30:39.380Z,1.20
2022-09-23T16:32:41.141Z,1.40
2022-09-23T16:34:53.286Z,1.50
2022-09-23T16:36:54.951Z,1.95
2022-09-23T16:38:57.339Z,1.35
2022-09-23T16:41:00.591Z,2.80
2022-09-23T16:43:05.369Z,2.13
2022-09-23T16:45:07.724Z,2.05
2022-09-23T16:47:09.710Z,1.45
2022-09-23T16:49:12.182Z,1.60
2022-09-23T16:51:20.524Z,4.88
2022-09-23T16:53:23.670Z,2.20
2022-09-23T16:55:29.875Z,2.03
2022-09-23T16:57:31.442Z,2.20
2022-09-23T16:59:53.133Z,2.35
2022-09-23T17:02:13.180Z,2.00
2022-09-23T17:04:16.992Z,2.70
2022-09-23T17:06:19.337Z,1.40
2022-09-23T17:08:20.994Z,2.20
2022-09-23T17:10:22.577Z,2.67
2022-09-23T17:12:32.575Z,2.83
2022-09-23T17:14:34.668Z,1.65
2022-09-23T17:16:36.356Z,1.73
2022-09-23T17:18:41.136Z,4.18
2022-09-23T17:20:42.839Z,1.80
2022-09-23T17:22:44.413Z,5.72
2022-09-23T17:24:45.985Z,2.42
2022-09-23T17:26:53.266Z,3.53
2022-09-23T17:28:56.572Z,2.88
2022-09-23T17:31:00.084Z,3.80
2022-09-23T17:33:01.615Z,3.45
2022-09-23T17:35:06.820Z,4.50
2022-09-23T17:37:08.469Z,2.90
2022-09-23T17:39:10.839Z,2.25
2022-09-23T17:41:14.315Z,1.80
2022-09-23T17:43:20.185Z,3.17
2022-09-23T17:45:21.748Z,3.78
2022-09-23T17:47:23.432Z,2.60
2022-09-23T17:49:25.186Z,1.90
2022-09-23T17:51:27.117Z,2.05
2022-09-23T17:53:35.062Z,1.83
2022-09-23T17:55:37.078Z,4.00
2022-09-23T17:57:38.638Z,2.17
2022-09-23T17:59:40.373Z,2.13
2022-09-23T18:01:41.898Z,2.33
2022-09-23T18:03:43.920Z,1.80
2022-09-23T18:05:46.440Z,1.70
2022-09-23T18:07:48.088Z,2.78
2022-09-23T18:09:49.593Z,3.03
2022-09-23T18:11:51.299Z,2.42
2022-09-23T18:13:57.995Z,3.10
2022-09-23T18:16:02.358Z,2.88
2022-09-23T18:18:05.668Z,3.40
2022-09-23T18:20:08.006Z,4.40
2022-09-23T18:22:09.459Z,3.28
2022-09-23T18:26:34.367Z,8.25
2022-09-23T18:28:35.965Z,7.55
2022-09-23T18:30:37.648Z,6.18
2022-09-23T18:32:39.570Z,6.47
2022-09-23T18:34:44.099Z,4.32
2022-09-23T18:36:45.787Z,5.28
2022-09-23T18:38:51.049Z,3.88
2022-09-23T18:40:56.987Z,4.30
2022-09-23T18:42:58.575Z,4.43
2022-09-23T18:45:00.260Z,7.10
2022-09-23T18:47:01.856Z,13.00
2022-09-23T18:49:22.272Z,12.63
2022-09-23T18:51:26.127Z,17.48
2022-09-23T18:53:27.623Z,14.80
2022-09-23T18:55:29.063Z,13.75
2022-09-23T18:57:30.926Z,13.88
2022-09-23T18:59:36.935Z,12.20
2022-09-23T19:01:38.888Z,14.90
2022-09-23T19:03:41.108Z,12.07
2022-09-23T19:05:42.532Z,13.00
2022-09-23T19:07:44.223Z,11.48
2022-09-23T19:09:45.938Z,12.55
2022-09-23T19:11:52.112Z,9.98
2022-09-23T19:14:02.527Z,7.97
2022-09-23T19:16:14.878Z,8.10
2022-09-23T19:18:17.469Z,8.77
2022-09-23T19:20:19.164Z,8.43
2022-09-23T19:22:21.211Z,8.25
2022-09-23T19:24:22.899Z,8.15
2022-09-23T19:26:27.546Z,8.10
2022-09-23T19:28:29.341Z,8.27
2022-09-23T19:30:30.953Z,8.88
2022-09-23T19:32:34.716Z,8.25
2022-09-23T19:34:37.911Z,7.38
2022-09-23T19:36:42.224Z,7.78
2022-09-23T19:38:44.405Z,7.85
2022-09-23T19:40:49.921Z,8.75
2022-09-23T19:42:54.060Z,9.30
2022-09-23T19:44:55.767Z,9.10
2022-09-23T19:46:57.801Z,8.38
2022-09-23T19:49:00.575Z,8.32
2022-09-23T19:51:02.669Z,7.80
2022-09-23T19:53:05.682Z,8.63
2022-09-23T19:55:07.833Z,6.95
2022-09-23T19:57:09.530Z,8.55
2022-09-23T19:59:14.180Z,7.90
2022-09-23T20:01:22.998Z,7.95
2022-09-23T20:03:26.052Z,6.97
2022-09-23T20:05:35.636Z,7.10
2022-09-23T20:07:40.245Z,5.90
2022-09-23T20:09:41.948Z,6.82
2022-09-23T20:11:44.265Z,4.80
2022-09-23T20:13:47.555Z,5.72
2022-09-23T20:15:49.362Z,7.20
2022-09-23T20:17:51.654Z,5.60
2022-09-23T20:19:57.829Z,5.15
2022-09-23T20:22:19.253Z,4.90
2022-09-23T20:24:20.861Z,6.28
2022-09-23T20:26:41.040Z,4.65
2022-09-23T20:28:42.839Z,5.22
2022-09-23T20:30:44.453Z,6.07
2022-09-23T20:32:48.119Z,5.60
2022-09-23T20:34:49.879Z,5.60
2022-09-23T20:36:51.355Z,7.07
2022-09-23T20:39:01.991Z,6.88
2022-09-23T20:41:03.602Z,8.68
2022-09-23T20:43:05.303Z,6.00
2022-09-23T20:45:07.572Z,5.85
2022-09-23T20:47:14.012Z,7.35
2022-09-23T20:49:16.712Z,5.15
2022-09-23T20:51:20.104Z,7.43
2022-09-23T20:53:24.486Z,5.22
2022-09-23T20:55:26.161Z,6.50
2022-09-23T20:57:29.743Z,5.68
2022-09-23T20:59:31.812Z,6.25
2022-09-23T21:01:37.314Z,7.68
2022-09-23T21:03:41.219Z,7.40
2022-09-23T21:05:42.806Z,8.00
2022-09-23T21:07:47.398Z,6.38
2022-09-23T21:09:48.971Z,6.18
2022-09-23T21:11:52.207Z,7.85
2022-09-23T21:14:03.460Z,7.60
2022-09-23T21:16:11.390Z,6.00
2022-09-23T21:18:16.315Z,5.38
2022-09-23T21:20:21.449Z,5.97
2022-09-23T21:22:23.455Z,5.40
2022-09-23T21:25:00.397Z,4.72
2022-09-23T21:26:50.396Z,6.45
2022-09-23T21:28:55.543Z,3.83
2022-09-23T21:31:12.187Z,4.68
2022-09-23T21:33:14.566Z,3.60
2022-09-23T21:35:18.924Z,5.45
2022-09-23T21:37:21.609Z,3.88
2022-09-23T21:39:23.513Z,4.90
2022-09-23T21:41:25.603Z,5.78
2022-09-23T21:43:31.613Z,4.45
2022-09-23T21:45:33.878Z,4.50
2022-09-23T21:47:35.369Z,4.07
2022-09-23T21:49:36.954Z,3.75
2022-09-23T21:51:42.949Z,4.20
2022-09-23T21:53:45.240Z,4.55
2022-09-23T21:55:48.693Z,3.90
2022-09-23T21:57:51.562Z,3.95
2022-09-23T21:59:54.241Z,4.38
2022-09-23T22:01:55.791Z,4.28
2022-09-23T22:04:01.868Z,4.55
2022-09-23T22:06:05.059Z,5.65
2022-09-23T22:08:11.959Z,4.10
2022-09-23T22:10:13.600Z,4.50
2022-09-23T22:12:21.197Z,5.15
2022-09-23T22:14:26.040Z,4.47
2022-09-23T22:16:29.215Z,5.47
2022-09-23T22:18:30.963Z,4.38
2022-09-23T22:20:33.965Z,4.32
2022-09-23T22:22:35.927Z,4.50
2022-09-23T22:24:37.554Z,3.85
2022-09-23T22:26:41.735Z,4.03
2022-09-23T22:29:02.261Z,4.20
2022-09-23T22:31:22.681Z,3.80
2022-09-23T22:33:24.258Z,5.05
2022-09-23T22:35:26.005Z,4.45
2022-09-23T22:37:30.458Z,4.25
2022-09-23T22:39:34.428Z,4.13
2022-09-23T22:41:36.455Z,4.38
2022-09-23T22:43:38.332Z,4.10
2022-09-23T22:45:40.048Z,6.28
2022-09-23T22:47:47.034Z,12.35
2022-09-23T22:49:55.573Z,14.35
2022-09-23T22:51:57.297Z,11.88
2022-09-23T22:53:58.842Z,9.02
2022-09-23T22:56:01.251Z,9.38
2022-09-23T22:58:21.201Z,6.00
2022-09-23T23:00:24.382Z,5.00
2022-09-23T23:02:27.021Z,4.75
2022-09-23T23:04:29.993Z,5.35
2022-09-23T23:06:36.683Z,4.88
2022-09-23T23:08:38.742Z,4.50
2022-09-23T23:10:42.181Z,5.00
2022-09-23T23:12:46.866Z,3.55
2022-09-23T23:14:49.513Z,5.43
2022-09-23T23:16:51.046Z,3.45
2022-09-23T23:18:53.810Z,3.45
2022-09-23T23:20:57.350Z,3.72
2022-09-23T23:23:02.124Z,2.88
2022-09-23T23:25:06.534Z,3.60
2022-09-23T23:27:08.072Z,3.33
2022-09-23T23:29:11.007Z,3.28
2022-09-23T23:31:15.885Z,3.13
2022-09-23T23:33:17.429Z,3.78
2022-09-23T23:35:19.000Z,3.97
2022-09-23T23:37:21.171Z,4.28
2022-09-23T23:39:26.746Z,3.75
2022-09-23T23:41:28.888Z,4.22
2022-09-23T23:43:31.964Z,4.28
2022-09-23T23:45:33.626Z,5.07
2022-09-23T23:47:35.573Z,3.25
2022-09-23T23:49:37.122Z,3.92
2022-09-23T23:51:41.747Z,3.70
2022-09-23T23:53:43.898Z,3.70
2022-09-23T23:55:45.855Z,4.72
2022-09-23T23:57:51.346Z,4.75
2022-09-23T23:59:55.945Z,4.55
